Terminal Aerodrome Forecast
Issued by NWS Sterling, VA

Home | Current Version | Previous Version | Text Only | Print | Product List | Glossary On
Versions: 1 2 3 4 5 6 7 8 9 10 11 12 13 14
000
FTUS41 KLWX 261733
TAFCHO
TAF
KCHO 261733Z 2618/2718 17004KT P6SM SCT050
     FM270000 15004KT P6SM FEW250
     FM270800 VRB03KT P6SM SCT025 BKN090
     FM271100 20004KT P6SM BKN025
     FM271400 21006KT P6SM BKN040=

USA.gov is the U.S. government's official web portal to all federal, state and local government web resources and services.